Time;durP1;ratioP1;P1;durP2;ratioP2;P2;SDS_P1;SDS_P2;PMS_P1;PMS_P2;Temp;Humidity;BMP_temperature;BMP_pressure;BME280_temperature;BME280_humidity;BME280_pressure;Samples;Min_cycle;Max_cycle;Signal;HPM_P1;HPM_P2
2023/03/30 00:00:00;;;;;;;0.50;0.50;;;10.80;99.90;;;;;;6127049;23;20172;-71
2023/03/30 00:02:29;;;;;;;0.50;0.50;;;10.80;99.90;;;;;;6127135;23;20133;-71
2023/03/30 00:05:01;;;;;;;6.27;1.60;;;10.70;99.90;;;;;;6100967;23;20938;-71
2023/03/30 00:07:28;;;;;;;0.40;0.40;;;10.70;99.90;;;;;;6127054;23;20685;-71
2023/03/30 00:09:56;;;;;;;0.73;0.73;;;10.80;99.90;;;;;;6126955;23;20171;-71
2023/03/30 00:12:21;;;;;;;0.50;0.50;;;10.70;99.90;;;;;;6127002;23;20215;-71
2023/03/30 00:14:48;;;;;;;0.53;0.53;;;10.80;99.90;;;;;;6126934;23;20148;-71
2023/03/30 00:17:13;;;;;;;0.40;0.40;;;10.80;99.90;;;;;;6126833;23;20567;-71
2023/03/30 00:19:39;;;;;;;9.10;1.67;;;10.80;99.90;;;;;;6126861;23;20168;-71
2023/03/30 00:22:07;;;;;;;7.30;0.73;;;10.80;99.90;;;;;;6126608;23;20160;-71
2023/03/30 00:24:33;;;;;;;0.30;0.30;;;10.80;99.90;;;;;;6126828;23;20372;-71
2023/03/30 00:26:59;;;;;;;0.30;0.30;;;10.90;99.90;;;;;;6126974;23;20383;-71
2023/03/30 00:29:25;;;;;;;1.15;1.15;;;10.90;99.90;;;;;;6126732;23;20194;-71
2023/03/30 00:31:50;;;;;;;0.40;0.40;;;10.90;99.90;;;;;;6126396;23;20148;-71
2023/03/30 00:34:16;;;;;;;0.63;0.50;;;10.90;99.90;;;;;;6126889;23;20599;-71
2023/03/30 00:36:42;;;;;;;0.50;0.50;;;10.90;99.90;;;;;;6126601;23;20152;-71
2023/03/30 00:39:07;;;;;;;0.80;0.80;;;10.80;99.90;;;;;;6126476;23;20164;-70
2023/03/30 00:41:35;;;;;;;0.50;0.50;;;10.80;99.90;;;;;;6126668;23;20202;-71
2023/03/30 00:44:27;;;;;;;0.47;0.47;;;10.80;99.90;;;;;;6126503;23;20144;-71
2023/03/30 00:46:54;;;;;;;0.40;0.40;;;10.80;99.90;;;;;;6126083;23;20492;-71
2023/03/30 00:49:20;;;;;;;0.50;0.50;;;10.90;99.90;;;;;;6126622;23;20172;-71
2023/03/30 00:51:49;;;;;;;1.03;0.97;;;10.80;99.90;;;;;;6126274;23;20465;-71
2023/03/30 00:54:18;;;;;;;0.30;0.30;;;10.90;99.90;;;;;;6126589;23;20372;-71
2023/03/30 00:56:44;;;;;;;0.57;0.57;;;11.00;99.90;;;;;;6126505;23;20585;-71
2023/03/30 00:59:11;;;;;;;0.45;0.45;;;11.00;99.90;;;;;;6126570;23;20523;-70
2023/03/30 01:01:39;;;;;;;0.40;0.40;;;11.00;99.90;;;;;;6126511;23;20155;-71
2023/03/30 01:04:06;;;;;;;0.50;0.50;;;11.00;99.90;;;;;;6126544;23;20423;-71
2023/03/30 01:06:34;;;;;;;3.50;1.07;;;11.10;99.90;;;;;;6126477;23;20448;-71
2023/03/30 01:09:00;;;;;;;0.82;0.82;;;11.10;99.90;;;;;;6126444;23;20836;-71
2023/03/30 01:11:26;;;;;;;0.40;0.40;;;11.10;99.90;;;;;;6126467;23;20144;-71
2023/03/30 01:14:14;;;;;;;0.40;0.40;;;11.10;99.90;;;;;;6126232;23;20463;-71
2023/03/30 01:17:00;;;;;;;3.40;0.95;;;11.10;99.90;;;;;;6126409;23;20215;-71
2023/03/30 01:19:53;;;;;;;0.70;0.70;;;11.10;99.90;;;;;;6126402;23;20172;-71
2023/03/30 01:22:37;;;;;;;0.50;0.50;;;11.00;99.90;;;;;;6100179;23;20939;-71
2023/03/30 01:25:32;;;;;;;0.40;0.40;;;11.00;99.90;;;;;;6126377;23;20768;-71
2023/03/30 01:28:41;;;;;;;0.40;0.40;;;11.00;99.90;;;;;;6126281;23;20740;-71
2023/03/30 01:31:33;;;;;;;10.20;2.10;;;11.10;99.90;;;;;;6106921;23;20770;-71
2023/03/30 01:34:24;;;;;;;0.60;0.60;;;11.10;99.90;;;;;;6126200;23;20365;-71
2023/03/30 01:36:59;;;;;;;23.33;1.77;;;10.80;99.90;;;;;;6126275;23;20416;-71
2023/03/30 01:39:46;;;;;;;0.40;0.40;;;10.80;99.90;;;;;;6126261;23;20164;-71
2023/03/30 01:42:21;;;;;;;0.87;0.87;;;10.90;99.90;;;;;;6126074;23;20368;-71
2023/03/30 01:44:59;;;;;;;0.88;0.88;;;10.90;99.90;;;;;;6126701;23;20352;-71
2023/03/30 01:47:39;;;;;;;0.40;0.40;;;11.00;99.90;;;;;;6126363;23;20163;-71
2023/03/30 01:50:37;;;;;;;0.57;0.57;;;10.90;99.90;;;;;;6126305;23;20732;-71
2023/03/30 01:53:09;;;;;;;1.50;1.40;;;11.00;99.90;;;;;;6070910;23;20164;-71
2023/03/30 01:55:52;;;;;;;1.00;0.70;;;11.10;99.90;;;;;;6126197;23;20380;-71
2023/03/30 01:58:25;;;;;;;0.50;0.50;;;11.10;99.90;;;;;;6127886;23;20429;-70
2023/03/30 02:00:53;;;;;;;0.50;0.50;;;11.00;99.90;;;;;;6128483;23;20344;-71
2023/03/30 02:03:26;;;;;;;0.93;0.93;;;10.90;99.90;;;;;;6127981;23;20700;-71
2023/03/30 02:05:57;;;;;;;1.13;1.13;;;10.90;99.90;;;;;;6128183;23;20404;-71
2023/03/30 02:08:28;;;;;;;0.40;0.40;;;11.00;99.90;;;;;;6128089;23;20748;-71
2023/03/30 02:10:57;;;;;;;0.40;0.40;;;11.00;99.90;;;;;;6128127;23;20457;-71
2023/03/30 02:13:26;;;;;;;1.20;0.65;;;11.00;99.90;;;;;;6127836;23;20218;-71
2023/03/30 02:16:30;;;;;;;9.18;0.73;;;10.90;99.90;;;;;;6128288;23;20157;-71
2023/03/30 02:18:56;;;;;;;0.55;0.55;;;10.80;99.90;;;;;;6126870;23;20187;-71
2023/03/30 02:21:22;;;;;;;0.67;0.40;;;10.70;99.90;;;;;;6127872;23;20164;-71
2023/03/30 02:23:49;;;;;;;1.08;1.08;;;10.70;99.90;;;;;;6127849;23;20670;-71
2023/03/30 02:26:15;;;;;;;0.50;0.50;;;10.70;99.90;;;;;;6127974;23;20215;-70
2023/03/30 02:28:41;;;;;;;0.40;0.40;;;10.70;99.90;;;;;;6101846;23;20189;-71
2023/03/30 02:31:15;;;;;;;0.40;0.40;;;10.80;99.90;;;;;;6127913;23;20372;-71
2023/03/30 02:34:09;;;;;;;0.40;0.40;;;10.70;99.90;;;;;;6127638;23;20529;-71
2023/03/30 02:36:56;;;;;;;3.33;0.60;;;10.80;99.90;;;;;;6101855;23;20536;-71
2023/03/30 02:39:40;;;;;;;1.88;1.42;;;10.70;99.90;;;;;;6127871;23;20164;-71
2023/03/30 02:42:23;;;;;;;0.40;0.40;;;10.70;99.90;;;;;;6127636;23;20144;-71
2023/03/30 02:45:04;;;;;;;3.07;2.17;;;10.90;99.90;;;;;;6101803;23;20148;-71
2023/03/30 02:47:48;;;;;;;0.65;0.65;;;10.90;99.90;;;;;;6128119;23;20415;-71
2023/03/30 02:50:29;;;;;;;2.40;1.15;;;10.90;99.90;;;;;;6127690;23;20511;-71
2023/03/30 02:53:06;;;;;;;0.40;0.40;;;10.90;99.90;;;;;;6101604;23;20159;-71
2023/03/30 02:55:38;;;;;;;0.60;0.60;;;10.90;99.90;;;;;;6127707;23;20441;-71
2023/03/30 02:58:07;;;;;;;0.70;0.50;;;10.80;99.90;;;;;;6127523;23;20491;-71
2023/03/30 03:00:57;;;;;;;1.10;1.10;;;10.80;99.90;;;;;;6127732;23;20424;-71
2023/03/30 03:03:27;;;;;;;6.45;0.70;;;10.70;99.90;;;;;;6127403;23;20367;-71
2023/03/30 03:05:54;;;;;;;0.80;0.65;;;10.80;99.90;;;;;;6127841;23;20465;-71
2023/03/30 03:08:23;;;;;;;0.88;0.88;;;11.00;99.90;;;;;;6127099;23;20164;-71
2023/03/30 03:10:50;;;;;;;0.90;0.50;;;11.00;99.90;;;;;;6101568;23;20370;-71
2023/03/30 03:13:17;;;;;;;1.45;1.25;;;11.00;99.90;;;;;;6127436;23;20148;-71
2023/03/30 03:15:45;;;;;;;15.15;1.70;;;11.00;99.90;;;;;;6127526;23;20149;-71
2023/03/30 03:18:11;;;;;;;1.38;0.70;;;11.00;99.90;;;;;;6127248;23;20179;-71
2023/03/30 03:20:37;;;;;;;3.85;0.93;;;11.00;99.90;;;;;;6127479;23;20145;-71
2023/03/30 03:23:04;;;;;;;0.60;0.60;;;11.10;99.90;;;;;;6127184;23;20492;-71
2023/03/30 03:25:30;;;;;;;1.23;1.13;;;11.00;99.90;;;;;;6127422;23;20541;-71
2023/03/30 03:27:55;;;;;;;0.77;0.60;;;11.00;99.90;;;;;;6127254;23;20424;-70
2023/03/30 03:30:22;;;;;;;1.10;1.10;;;11.10;99.90;;;;;;6127688;23;20455;-70
2023/03/30 03:32:48;;;;;;;1.00;0.50;;;11.10;99.90;;;;;;6127145;23;20383;-71
2023/03/30 03:35:14;;;;;;;0.53;0.53;;;11.10;99.90;;;;;;6127509;23;20451;-71
2023/03/30 03:37:40;;;;;;;6.53;1.13;;;11.10;99.90;;;;;;6127198;23;20790;-71
2023/03/30 03:40:07;;;;;;;2.53;2.33;;;11.10;99.90;;;;;;6127245;23;20504;-71
2023/03/30 03:42:32;;;;;;;3.53;1.17;;;11.20;99.90;;;;;;6127031;23;20168;-71
2023/03/30 03:44:58;;;;;;;1.50;0.87;;;11.20;99.90;;;;;;6101184;23;20713;-71
2023/03/30 03:47:24;;;;;;;0.40;0.40;;;11.20;99.90;;;;;;6127208;23;20156;-71
2023/03/30 03:49:50;;;;;;;0.40;0.40;;;11.20;99.90;;;;;;6127096;23;20172;-71
2023/03/30 03:52:16;;;;;;;0.43;0.43;;;11.20;99.90;;;;;;6127425;23;20152;-71
2023/03/30 03:54:41;;;;;;;2.00;1.30;;;11.20;99.90;;;;;;6127041;23;20459;-71
2023/03/30 03:57:07;;;;;;;1.00;0.80;;;11.10;99.90;;;;;;6127020;23;20179;-71
2023/03/30 03:59:33;;;;;;;0.77;0.77;;;11.10;99.90;;;;;;6126872;23;20246;-71
2023/03/30 04:01:58;;;;;;;0.87;0.80;;;11.20;99.90;;;;;;6126920;23;20137;-71
2023/03/30 04:04:24;;;;;;;0.90;0.80;;;11.10;99.90;;;;;;6101054;23;20157;-71
2023/03/30 04:06:50;;;;;;;4.10;2.10;;;11.00;99.90;;;;;;6127019;23;20156;-70
2023/03/30 04:09:17;;;;;;;0.37;0.37;;;11.10;99.90;;;;;;6126940;23;20171;-71
2023/03/30 04:11:43;;;;;;;0.90;0.90;;;11.10;99.90;;;;;;6126732;23;20172;-71
2023/03/30 04:14:09;;;;;;;0.60;0.60;;;11.10;99.90;;;;;;6126960;23;20376;-71
2023/03/30 04:16:36;;;;;;;0.40;0.40;;;11.10;99.90;;;;;;6126907;23;20216;-71
2023/03/30 04:19:02;;;;;;;0.52;0.52;;;11.10;99.90;;;;;;6127015;23;20247;-71
2023/03/30 04:21:28;;;;;;;0.65;0.65;;;11.10;99.90;;;;;;6126891;23;20167;-71
2023/03/30 04:23:54;;;;;;;0.90;0.90;;;11.10;99.90;;;;;;6126735;23;20207;-71
2023/03/30 04:26:20;;;;;;;11.23;0.70;;;11.20;99.90;;;;;;6126820;23;20164;-71
2023/03/30 04:28:46;;;;;;;0.93;0.67;;;11.20;99.90;;;;;;6127176;23;20496;-71
2023/03/30 04:31:11;;;;;;;1.53;1.30;;;11.10;99.90;;;;;;6126996;23;20151;-71
2023/03/30 04:33:44;;;;;;;0.30;0.30;;;11.10;99.90;;;;;;6126648;23;20151;-71
2023/03/30 04:36:16;;;;;;;0.77;0.77;;;11.20;99.90;;;;;;6126897;23;20140;-71
2023/03/30 04:38:56;;;;;;;0.50;0.50;;;11.10;99.90;;;;;;6126586;23;20184;-71
2023/03/30 04:41:32;;;;;;;2.67;0.95;;;11.10;99.90;;;;;;6127259;23;20344;-71
2023/03/30 04:44:00;;;;;;;1.77;1.40;;;11.10;99.90;;;;;;6126538;23;20203;-71
2023/03/30 04:46:26;;;;;;;13.00;0.90;;;11.10;99.90;;;;;;6100713;23;20872;-71
2023/03/30 04:48:51;;;;;;;1.27;1.17;;;11.00;99.90;;;;;;6126543;23;20395;-71
2023/03/30 04:51:17;;;;;;;0.70;0.70;;;10.90;99.90;;;;;;6126654;23;20440;-71
2023/03/30 04:53:42;;;;;;;2.50;0.80;;;10.90;99.90;;;;;;6126504;23;20475;-71
2023/03/30 04:56:08;;;;;;;2.30;2.10;;;10.90;99.90;;;;;;6126795;23;20256;-71
2023/03/30 04:58:34;;;;;;;0.60;0.60;;;10.90;99.90;;;;;;6126600;23;20216;-71
2023/03/30 05:00:59;;;;;;;0.97;0.93;;;10.90;99.90;;;;;;6126719;23;20149;-71
2023/03/30 05:03:25;;;;;;;5.73;0.93;;;11.00;99.90;;;;;;6126320;23;20196;-71
2023/03/30 05:05:51;;;;;;;1.42;1.15;;;11.10;99.90;;;;;;6100411;23;20232;-71
2023/03/30 05:08:17;;;;;;;1.83;1.80;;;11.10;99.90;;;;;;6126445;23;20203;-70
2023/03/30 05:10:43;;;;;;;1.87;1.00;;;11.10;99.90;;;;;;6126786;23;20159;-71
2023/03/30 05:13:09;;;;;;;0.52;0.52;;;11.00;99.90;;;;;;6098389;23;20501;-71
2023/03/30 05:15:34;;;;;;;0.77;0.77;;;11.00;99.90;;;;;;6124568;23;20159;-71
2023/03/30 05:18:00;;;;;;;1.07;1.07;;;11.00;99.90;;;;;;6099728;23;20176;-71
2023/03/30 05:20:26;;;;;;;1.50;0.97;;;11.00;99.90;;;;;;6126386;23;20219;-71
2023/03/30 05:22:52;;;;;;;0.40;0.40;;;11.10;99.90;;;;;;6126113;23;20199;-71
2023/03/30 05:25:18;;;;;;;0.50;0.50;;;11.10;99.90;;;;;;6126414;23;20187;-71
2023/03/30 05:27:44;;;;;;;0.40;0.40;;;11.10;99.90;;;;;;6126628;23;20379;-70
2023/03/30 05:30:10;;;;;;;1.90;0.80;;;11.10;99.90;;;;;;6126249;23;20396;-71
2023/03/30 05:32:36;;;;;;;1.10;0.90;;;11.10;99.90;;;;;;6125986;23;20215;-71
2023/03/30 05:35:02;;;;;;;1.93;1.83;;;11.10;99.90;;;;;;6126337;23;20404;-71
2023/03/30 05:37:28;;;;;;;0.40;0.40;;;11.10;99.90;;;;;;6126158;23;20246;-71
2023/03/30 05:39:53;;;;;;;1.90;1.57;;;11.10;99.90;;;;;;6126227;23;20486;-71
2023/03/30 05:42:20;;;;;;;0.77;0.77;;;11.20;99.90;;;;;;6125165;23;20149;-72
2023/03/30 05:44:45;;;;;;;0.55;0.50;;;11.20;99.90;;;;;;6126661;23;20235;-69
2023/03/30 05:47:11;;;;;;;0.53;0.53;;;11.20;99.90;;;;;;6126411;23;20148;-69
2023/03/30 05:49:37;;;;;;;0.40;0.40;;;11.30;99.90;;;;;;6125021;23;20172;-68
2023/03/30 05:52:02;;;;;;;0.70;0.70;;;11.70;99.90;;;;;;6126168;23;20155;-68
2023/03/30 05:54:28;;;;;;;2.73;0.80;;;12.10;99.90;;;;;;6126687;23;20159;-71
2023/03/30 05:56:54;;;;;;;1.03;1.03;;;12.50;99.90;;;;;;6126848;23;20154;-71
2023/03/30 05:59:20;;;;;;;1.90;1.03;;;12.60;99.90;;;;;;6126794;23;20388;-71
2023/03/30 06:01:47;;;;;;;0.50;0.50;;;12.60;99.90;;;;;;6126273;23;20753;-74
2023/03/30 06:04:15;;;;;;;1.80;0.73;;;12.30;99.90;;;;;;6127067;23;20374;-74
2023/03/30 06:06:41;;;;;;;0.80;0.80;;;12.10;99.90;;;;;;6126807;23;20374;-73
2023/03/30 06:09:09;;;;;;;2.77;0.80;;;11.90;99.90;;;;;;6100313;23;20486;-74
2023/03/30 06:11:35;;;;;;;0.73;0.73;;;11.70;99.90;;;;;;6101086;23;20731;-71
2023/03/30 06:14:02;;;;;;;0.40;0.40;;;11.80;99.90;;;;;;6126359;23;20523;-71
2023/03/30 06:16:28;;;;;;;0.80;0.77;;;11.80;99.90;;;;;;6127009;23;20375;-70
2023/03/30 06:18:55;;;;;;;0.70;0.70;;;11.90;99.90;;;;;;6100008;23;20435;-73
2023/03/30 06:21:21;;;;;;;1.27;0.80;;;12.00;99.90;;;;;;6100198;23;20454;-72
2023/03/30 06:23:47;;;;;;;14.43;2.10;;;12.00;99.90;;;;;;6126117;23;20359;-74
2023/03/30 06:26:14;;;;;;;0.40;0.40;;;12.00;99.90;;;;;;6126687;23;20374;-71
2023/03/30 06:28:40;;;;;;;0.93;0.93;;;11.90;99.90;;;;;;6126452;23;20487;-74
2023/03/30 06:31:10;;;;;;;1.53;1.43;;;11.90;99.90;;;;;;6126259;23;20404;-74
2023/03/30 06:33:36;;;;;;;3.20;0.93;;;11.90;99.90;;;;;;6126100;23;20152;-75
2023/03/30 06:36:03;;;;;;;0.43;0.43;;;11.80;99.90;;;;;;6126467;23;20373;-75
2023/03/30 06:38:29;;;;;;;1.73;0.83;;;11.60;99.90;;;;;;6126436;23;20946;-74
2023/03/30 06:40:55;;;;;;;0.40;0.40;;;11.70;99.90;;;;;;6126599;23;20398;-74
2023/03/30 06:43:24;;;;;;;1.03;0.93;;;11.80;99.90;;;;;;6126058;23;20451;-74
2023/03/30 06:45:52;;;;;;;1.63;1.17;;;12.00;99.90;;;;;;6128658;23;20372;-73
2023/03/30 06:48:22;;;;;;;1.63;1.20;;;12.20;99.90;;;;;;6127893;23;20413;-74
2023/03/30 06:50:50;;;;;;;2.20;1.53;;;12.40;99.90;;;;;;6128221;23;20718;-74
2023/03/30 06:53:16;;;;;;;1.33;0.97;;;12.60;99.90;;;;;;6127607;23;20386;-75
2023/03/30 06:55:43;;;;;;;1.50;0.50;;;12.70;99.90;;;;;;6127613;23;20379;-75
2023/03/30 06:58:09;;;;;;;0.53;0.53;;;12.90;99.90;;;;;;6128345;23;20418;-74
2023/03/30 07:00:35;;;;;;;1.63;1.53;;;13.20;99.90;;;;;;6128585;23;20427;-75
2023/03/30 07:03:00;;;;;;;2.73;2.60;;;13.50;99.90;;;;;;6127061;23;20867;-74
2023/03/30 07:05:27;;;;;;;1.83;1.73;;;13.80;99.90;;;;;;6126315;23;20372;-73
2023/03/30 07:07:53;;;;;;;12.47;1.47;;;14.10;99.90;;;;;;6126536;23;20159;-74
2023/03/30 07:10:19;;;;;;;0.50;0.50;;;14.10;99.90;;;;;;6128093;23;20396;-74
2023/03/30 07:12:46;;;;;;;1.00;0.83;;;13.90;99.90;;;;;;6126807;23;20388;-74
2023/03/30 07:15:12;;;;;;;1.33;1.27;;;13.80;99.90;;;;;;6125419;23;20839;-74
2023/03/30 07:17:38;;;;;;;2.43;2.27;;;13.60;99.90;;;;;;6127674;23;20420;-74
2023/03/30 07:20:05;;;;;;;1.07;0.97;;;13.40;99.90;;;;;;6127657;23;20447;-75
2023/03/30 07:22:30;;;;;;;1.70;1.30;;;13.30;99.90;;;;;;6127241;23;20399;-74
2023/03/30 07:24:56;;;;;;;6.00;2.10;;;13.20;99.90;;;;;;6127422;23;20706;-72
2023/03/30 07:27:26;;;;;;;0.67;0.67;;;13.30;99.90;;;;;;6127421;23;20523;-75
2023/03/30 07:29:51;;;;;;;2.30;1.33;;;13.30;98.90;;;;;;6127546;23;20173;-73
2023/03/30 07:32:18;;;;;;;1.00;1.00;;;13.30;99.90;;;;;;6127418;23;20380;-75
2023/03/30 07:34:44;;;;;;;4.23;1.03;;;13.40;99.90;;;;;;6127400;23;20751;-72
2023/03/30 07:37:11;;;;;;;0.60;0.50;;;13.40;97.10;;;;;;6127823;23;20768;-76
2023/03/30 07:39:37;;;;;;;0.80;0.80;;;13.60;98.20;;;;;;6127621;23;20384;-75
2023/03/30 07:42:03;;;;;;;2.27;1.47;;;13.70;97.00;;;;;;6127728;23;20467;-73
2023/03/30 07:44:29;;;;;;;2.37;2.20;;;14.00;95.30;;;;;;6127253;23;20203;-73
2023/03/30 07:46:56;;;;;;;0.73;0.70;;;14.00;95.90;;;;;;6127521;23;20824;-75
2023/03/30 07:49:22;;;;;;;0.60;0.60;;;14.30;96.00;;;;;;6127586;23;20408;-73
2023/03/30 07:51:47;;;;;;;0.67;0.60;;;14.40;94.80;;;;;;6125234;23;20471;-73
2023/03/30 07:54:13;;;;;;;1.43;1.30;;;14.30;94.80;;;;;;6126634;23;20369;-71
2023/03/30 07:56:41;;;;;;;0.40;0.40;;;14.30;94.80;;;;;;6126553;23;20159;-71
2023/03/30 07:59:07;;;;;;;0.80;0.80;;;14.00;94.80;;;;;;6126325;23;20435;-71
2023/03/30 08:01:33;;;;;;;2.70;1.43;;;13.90;95.20;;;;;;6125574;23;20430;-72
2023/03/30 08:03:59;;;;;;;1.47;1.37;;;13.80;94.80;;;;;;6127314;23;20400;-74
2023/03/30 08:06:26;;;;;;;0.50;0.50;;;13.70;96.40;;;;;;6126947;23;20452;-71
2023/03/30 08:08:52;;;;;;;1.13;1.13;;;13.70;95.60;;;;;;6127305;23;20392;-71
2023/03/30 08:11:18;;;;;;;2.90;1.70;;;13.70;94.90;;;;;;6127872;23;20870;-71
2023/03/30 08:13:43;;;;;;;1.10;1.00;;;13.70;94.60;;;;;;6126674;23;20828;-71
2023/03/30 08:16:10;;;;;;;1.00;1.00;;;13.70;96.20;;;;;;6125694;23;20380;-71
2023/03/30 08:18:36;;;;;;;0.70;0.70;;;13.60;96.20;;;;;;6125615;23;20191;-72
2023/03/30 08:21:03;;;;;;;1.07;0.70;;;13.60;96.20;;;;;;6124651;23;20372;-71
2023/03/30 08:23:29;;;;;;;1.07;1.07;;;13.70;96.00;;;;;;6125092;23;20927;-71
2023/03/30 08:25:58;;;;;;;0.77;0.77;;;13.70;94.60;;;;;;6125493;23;20400;-71
2023/03/30 08:28:24;;;;;;;1.00;1.00;;;13.70;94.50;;;;;;6125361;23;20795;-71
2023/03/30 08:30:50;;;;;;;2.53;1.07;;;13.70;94.90;;;;;;6125436;23;20380;-71
2023/03/30 08:33:16;;;;;;;4.00;1.40;;;13.70;94.60;;;;;;6125791;23;20766;-71
2023/03/30 08:35:48;;;;;;;1.27;1.27;;;13.70;94.50;;;;;;6126771;23;20490;-71
2023/03/30 08:38:16;;;;;;;1.13;0.90;;;13.70;94.80;;;;;;6125724;23;20168;-71
2023/03/30 08:40:47;;;;;;;2.73;1.23;;;13.50;96.90;;;;;;6127318;23;20672;-71
2023/03/30 08:43:35;;;;;;;0.70;0.70;;;13.30;96.20;;;;;;6126984;23;20686;-71
2023/03/30 08:46:02;;;;;;;1.13;0.80;;;13.10;96.00;;;;;;6127532;23;20352;-71
2023/03/30 08:48:32;;;;;;;0.80;0.80;;;13.10;96.20;;;;;;6127437;23;20427;-71
2023/03/30 08:51:04;;;;;;;0.63;0.63;;;13.10;96.80;;;;;;6127551;23;20341;-71
2023/03/30 08:53:32;;;;;;;0.83;0.60;;;13.10;97.00;;;;;;6126879;23;20357;-71
2023/03/30 08:56:09;;;;;;;1.37;0.97;;;13.00;97.20;;;;;;6127036;23;20744;-71
2023/03/30 08:59:15;;;;;;;1.00;1.00;;;12.50;99.20;;;;;;6127157;23;20477;-73
2023/03/30 09:02:12;;;;;;;3.80;2.07;;;12.40;99.60;;;;;;6055476;23;20473;-74
2023/03/30 09:04:57;;;;;;;0.53;0.53;;;12.30;99.90;;;;;;6116670;23;20437;-71
2023/03/30 09:07:26;;;;;;;1.43;1.40;;;12.10;99.90;;;;;;6127069;23;20451;-74
2023/03/30 09:09:54;;;;;;;0.87;0.87;;;11.70;99.90;;;;;;6126576;23;20399;-73
2023/03/30 09:12:29;;;;;;;2.00;1.40;;;11.60;99.90;;;;;;6126328;23;20376;-74
2023/03/30 09:15:03;;;;;;;1.00;1.00;;;11.70;99.90;;;;;;6127012;23;20358;-74
2023/03/30 09:17:37;;;;;;;1.17;0.77;;;11.60;99.90;;;;;;6127167;23;20407;-73
2023/03/30 09:20:23;;;;;;;1.10;1.03;;;11.50;99.90;;;;;;6126315;23;20391;-71
2023/03/30 09:22:49;;;;;;;2.27;1.23;;;11.30;99.90;;;;;;6126530;23;20427;-71
2023/03/30 09:25:20;;;;;;;0.70;0.70;;;11.40;99.90;;;;;;6126547;23;20379;-71
2023/03/30 09:28:09;;;;;;;0.50;0.50;;;11.40;99.90;;;;;;6126976;23;20352;-72
2023/03/30 09:30:48;;;;;;;0.70;0.70;;;11.30;99.90;;;;;;6126503;23;20401;-71
2023/03/30 09:33:26;;;;;;;2.93;1.13;;;11.30;99.90;;;;;;6100613;23;20451;-72
2023/03/30 09:36:17;;;;;;;2.13;2.03;;;11.40;99.90;;;;;;6126982;23;20357;-72
2023/03/30 09:38:44;;;;;;;3.47;3.17;;;11.50;99.90;;;;;;6126968;23;20435;-74
2023/03/30 09:41:22;;;;;;;0.97;0.97;;;11.60;99.90;;;;;;6126429;23;20408;-74
2023/03/30 09:43:50;;;;;;;0.65;0.65;;;11.60;99.90;;;;;;6126730;23;20351;-74
2023/03/30 09:46:16;;;;;;;1.53;1.43;;;11.80;99.90;;;;;;6100965;23;20152;-72
2023/03/30 09:48:44;;;;;;;1.47;1.43;;;12.00;99.90;;;;;;6126671;23;20714;-71
2023/03/30 09:51:19;;;;;;;2.10;2.00;;;12.10;99.90;;;;;;6127087;23;20372;-72
2023/03/30 09:53:48;;;;;;;1.00;1.00;;;12.40;99.90;;;;;;6125515;23;20375;-73
2023/03/30 09:56:40;;;;;;;1.17;1.13;;;12.60;99.90;;;;;;6124360;23;20418;-73
2023/03/30 09:59:30;;;;;;;8.93;1.57;;;13.00;99.90;;;;;;6126255;23;20430;-73
2023/03/30 10:02:11;;;;;;;2.10;1.57;;;13.20;99.90;;;;;;6126945;23;20407;-73
2023/03/30 10:04:52;;;;;;;1.17;1.10;;;13.30;99.90;;;;;;6126659;23;20355;-73
2023/03/30 10:07:34;;;;;;;2.33;1.07;;;13.20;99.90;;;;;;6126830;23;20703;-73
2023/03/30 10:10:12;;;;;;;1.23;1.20;;;13.10;99.90;;;;;;6126221;23;20415;-74
2023/03/30 10:12:38;;;;;;;0.87;0.83;;;13.20;99.90;;;;;;6126235;23;20431;-73
2023/03/30 10:15:04;;;;;;;1.83;1.40;;;13.30;99.90;;;;;;6099882;23;20413;-74
2023/03/30 10:17:31;;;;;;;2.73;1.10;;;13.30;99.90;;;;;;6127070;23;20419;-74
2023/03/30 10:20:15;;;;;;;0.80;0.80;;;13.30;99.90;;;;;;6128361;23;20399;-73
2023/03/30 10:22:53;;;;;;;1.70;1.60;;;13.20;99.90;;;;;;6099791;23;20400;-72
2023/03/30 10:25:22;;;;;;;0.90;0.90;;;12.90;99.90;;;;;;6126929;23;20438;-73
2023/03/30 10:27:54;;;;;;;1.57;1.47;;;12.90;99.90;;;;;;6126798;23;20832;-74
2023/03/30 10:30:24;;;;;;;1.03;1.03;;;12.90;99.90;;;;;;6126857;23;20886;-74
2023/03/30 10:32:52;;;;;;;6.60;1.47;;;13.00;99.90;;;;;;6128124;23;20384;-71
2023/03/30 10:35:21;;;;;;;1.00;1.00;;;13.20;99.90;;;;;;6102068;23;20874;-73
2023/03/30 10:37:50;;;;;;;1.17;1.17;;;13.10;99.90;;;;;;6127883;23;20430;-73
2023/03/30 10:40:25;;;;;;;1.87;1.80;;;12.90;99.90;;;;;;6128306;23;20391;-72
2023/03/30 10:42:54;;;;;;;0.87;0.87;;;12.90;99.90;;;;;;6127860;23;20375;-72
2023/03/30 10:45:28;;;;;;;1.30;1.23;;;12.80;99.90;;;;;;6128709;23;20459;-73
2023/03/30 10:48:32;;;;;;;0.87;0.87;;;12.70;99.90;;;;;;6128270;23;20365;-75
2023/03/30 10:51:06;;;;;;;7.73;1.60;;;12.60;99.90;;;;;;6124898;23;20371;-73
2023/03/30 10:53:41;;;;;;;0.60;0.60;;;12.80;99.90;;;;;;6127644;23;20381;-76
2023/03/30 10:56:13;;;;;;;1.87;1.60;;;12.90;99.90;;;;;;6127878;23;20698;-76
2023/03/30 10:59:20;;;;;;;0.80;0.70;;;12.70;99.90;;;;;;6127042;23;20431;-75
2023/03/30 11:02:37;;;;;;;1.07;0.87;;;12.50;99.90;;;;;;6127579;23;20823;-74
2023/03/30 11:05:17;;;;;;;3.17;1.90;;;12.50;99.90;;;;;;6064982;23;20903;-73
2023/03/30 11:08:01;;;;;;;0.60;0.60;;;12.40;99.90;;;;;;6128414;23;20364;-73
2023/03/30 11:10:37;;;;;;;3.23;3.03;;;12.30;99.90;;;;;;6128542;23;20815;-73
2023/03/30 11:13:06;;;;;;;9.40;1.67;;;12.20;99.90;;;;;;6127630;23;20391;-73
2023/03/30 11:15:53;;;;;;;1.57;1.47;;;12.20;99.90;;;;;;6127922;23;20380;-73
2023/03/30 11:18:27;;;;;;;1.80;1.20;;;12.00;99.90;;;;;;6128052;23;20419;-73
2023/03/30 11:21:00;;;;;;;2.77;1.37;;;12.10;99.90;;;;;;6102124;23;20400;-74
2023/03/30 11:23:52;;;;;;;1.17;1.07;;;12.10;99.90;;;;;;6127450;23;20439;-74
2023/03/30 11:26:28;;;;;;;1.60;1.50;;;12.10;99.90;;;;;;6128053;23;20363;-72
2023/03/30 11:28:54;;;;;;;0.70;0.53;;;12.10;99.90;;;;;;6125803;23;20396;-74
2023/03/30 11:31:42;;;;;;;1.13;0.50;;;12.10;99.90;;;;;;6127176;23;20372;-73
2023/03/30 11:34:19;;;;;;;1.23;0.90;;;12.10;99.90;;;;;;6126219;23;20167;-74
2023/03/30 11:36:56;;;;;;;1.17;0.83;;;12.10;99.90;;;;;;6127578;23;20360;-71
2023/03/30 11:39:29;;;;;;;0.63;0.57;;;12.10;99.90;;;;;;6128068;23;20414;-72
2023/03/30 11:42:18;;;;;;;1.10;1.00;;;12.10;99.90;;;;;;6127782;23;20355;-73
2023/03/30 11:44:44;;;;;;;0.53;0.53;;;12.20;99.90;;;;;;6127941;23;20671;-71
2023/03/30 11:47:20;;;;;;;1.70;0.87;;;12.10;99.90;;;;;;6127326;23;20364;-74
2023/03/30 11:50:19;;;;;;;1.10;1.10;;;12.10;99.90;;;;;;6127320;23;20474;-72
2023/03/30 11:53:16;;;;;;;1.30;1.20;;;12.20;99.90;;;;;;6115386;23;20842;-74
2023/03/30 11:56:09;;;;;;;0.80;0.70;;;12.40;99.90;;;;;;6127337;23;20351;-74
2023/03/30 11:58:38;;;;;;;1.00;1.00;;;12.40;99.90;;;;;;6127000;23;20480;-74
2023/03/30 12:01:49;;;;;;;0.63;0.63;;;12.30;99.90;;;;;;6127312;23;20375;-74
2023/03/30 12:04:18;;;;;;;0.30;0.30;;;12.20;99.90;;;;;;6059827;23;20440;-70
2023/03/30 12:06:54;;;;;;;0.80;0.80;;;12.10;99.90;;;;;;6127084;23;20708;-72
2023/03/30 12:09:47;;;;;;;9.30;2.40;;;12.00;99.90;;;;;;6127148;23;20710;-72
2023/03/30 12:12:20;;;;;;;0.70;0.70;;;12.00;99.90;;;;;;6126612;23;20695;-74
2023/03/30 12:14:54;;;;;;;0.53;0.53;;;12.10;99.90;;;;;;6126348;23;20357;-74
2023/03/30 12:17:24;;;;;;;0.40;0.40;;;12.10;99.90;;;;;;6127717;23;20408;-74
2023/03/30 12:20:08;;;;;;;1.23;1.13;;;12.20;99.90;;;;;;6100854;23;20495;-74
2023/03/30 12:22:51;;;;;;;0.77;0.77;;;12.40;99.90;;;;;;6126618;23;20431;-74
2023/03/30 12:25:38;;;;;;;0.40;0.40;;;12.50;99.90;;;;;;6127066;23;20352;-71
2023/03/30 12:28:12;;;;;;;1.07;1.03;;;12.50;99.90;;;;;;6127331;23;20368;-71
2023/03/30 12:30:59;;;;;;;5.40;1.23;;;12.50;99.90;;;;;;6126896;23;20856;-70
2023/03/30 12:33:34;;;;;;;1.27;0.77;;;12.60;99.90;;;;;;6126730;23;20382;-71
2023/03/30 12:36:01;;;;;;;0.50;0.50;;;12.60;99.90;;;;;;6126955;23;20360;-71
2023/03/30 12:38:42;;;;;;;6.87;0.97;;;12.50;99.90;;;;;;6126573;23;20482;-73
2023/03/30 12:41:14;;;;;;;0.80;0.80;;;12.40;99.90;;;;;;6126373;23;20399;-70
2023/03/30 12:43:48;;;;;;;0.93;0.93;;;12.40;99.90;;;;;;6126611;23;20882;-71
2023/03/30 12:46:28;;;;;;;1.03;1.03;;;12.80;99.90;;;;;;6126793;23;20360;-71
2023/03/30 12:49:15;;;;;;;0.50;0.50;;;12.90;99.90;;;;;;6125705;23;20406;-72
2023/03/30 12:51:52;;;;;;;1.07;0.63;;;13.00;99.90;;;;;;6126632;23;20360;-72
2023/03/30 12:54:38;;;;;;;0.80;0.80;;;13.20;99.90;;;;;;6126718;23;20363;-72
2023/03/30 12:57:21;;;;;;;0.90;0.80;;;13.70;99.90;;;;;;6126879;23;20454;-71
2023/03/30 13:00:08;;;;;;;1.17;1.10;;;13.90;99.20;;;;;;6126780;23;20388;-72
2023/03/30 13:02:46;;;;;;;2.90;1.73;;;14.10;98.50;;;;;;6126483;23;20411;-72
2023/03/30 13:05:23;;;;;;;0.63;0.63;;;13.80;97.40;;;;;;6126496;23;20352;-70
2023/03/30 13:07:50;;;;;;;0.43;0.43;;;13.80;98.10;;;;;;6126561;23;20808;-70
2023/03/30 13:10:35;;;;;;;1.67;1.57;;;14.00;97.80;;;;;;6126508;23;20482;-71